Pagrindinis puslapis
METAR-TAF:

METAR-TAF

Oro uostai :

Stambulas, Turkija

platuma: 41-16-31N, ilguma: 028-45-07E, Aukštis: 99 m

Dabartinis oras

Ataskaita buvo paskelbta 26 minutes, ne 09:50 UTC
Vėjas 14 kt iš Šiaurės Rytų
Temperatūra 14°C
Drėgmė 58%
Slėgis 1026 hPa
Matomumas 10 km arba daugiau
Su prošvaistėmis ne aukštis 2700 ft

METAR: LTFM 280950Z 05014KT 9999 BKN027 14/06 Q1026 NOSIG RMK RWY17L 05013KT RWY34L 05012KT RWY16R 06013KT RWY36 06013KT RWY18 06012KT

Laikas: 13:16 (10:16 UTC)

Prognozė

Ataskaita buvo paskelbta 5 valandos ir 36 minutes, ne 04:40 UTC
Prognozė galioja nuo 28 metu 06 UTC su 29 metu 12 UTC
Vėjas 15 kt iš Šiaurės Rytų su gūsio iki 25 kt
Matomumas 10 km arba daugiau
Mažai debesys ne aukštis 1500 ft
Su prošvaistėmis ne aukštis 2700 ft
Tikimybė 30% :
Laikinai
nuo 28 metu 17 UTC su 28 metu 20 UTC
dulksna
Laikinai
nuo 28 metu 22 UTC su 29 metu 02 UTC
dulksna
Laikinai
nuo 29 metu 06 UTC su 29 metu 10 UTC
dulksna

TAF: LTFM 280440Z 2806/2912 04015G25KT 9999 FEW015 BKN027 PROB30 TEMPO 2817/2820 -DZ TEMPO 2822/2902 -DZ TEMPO 2906/2910 -DZ

Orai ataskaitas ir orų prognozės (METAR, TAF).

turimą stotys yra geltonos ir raudonos taškus žemėlapyje.

Perkelti pele per norėdami pamatyti stoties vardą.

Tada spustelėkite, norėdami matyti oro stebėjimo ir prognozės.

Norėdami pakeisti žemėlapį: spustelėkite ant žalios mygtukų su juodo kryžiaus žemyn,; žalią mygtuką su brūkšneliu, jei norite nutolinti; arba žalių rodyklių gretimoms žemėlapius.


METAR-TAF: